Lincoln, Nebraska
Current Conditions -  °F | °C
As of 1:54 AM on Thursday 27 Nov 2014 (Local Time) from KLNK Reporting Station
Clear Clear  
Wind Chill: -13°   Ceiling: Unl
Heat Index: -8°   Visibility: 10mi
Dew Point: -11°   Wind: 7mph
Humidity: 78%   Direction: 360°N
Pressure: 30.5"   Gusts: NA
Location:  40.81°N, 96.71°W
Report Text: KLNK 270754Z AUTO 36006KT 10SM CLR M08/M11 A3050 RMK AO2 SLP346 T10781111
Loading
Personal Weather Stations






























Interactive Weather Map New forecast layout! Learn more

10-Day Weather Forecast

Advertisements
Track Severe Weather on mobile